createdAt,value
2022-11-01T05:26:19.008Z,7.50
2022-11-01T05:27:20.769Z,11.80
2022-11-01T05:28:20.206Z,11.30
2022-11-01T05:29:24.778Z,11.00
2022-11-01T05:30:22.391Z,12.40
2022-11-01T05:31:20.104Z,10.40
2022-11-01T05:32:20.931Z,9.90
2022-11-01T05:33:20.564Z,14.30
2022-11-01T05:34:20.021Z,10.50
2022-11-01T05:35:20.213Z,10.50
2022-11-01T05:36:19.923Z,13.90
2022-11-01T05:37:23.391Z,12.80
2022-11-01T05:38:20.923Z,10.90
2022-11-01T05:39:20.776Z,13.10
2022-11-01T05:40:20.133Z,9.60
2022-11-01T05:41:20.532Z,11.30
2022-11-01T05:42:19.889Z,9.00
2022-11-01T05:43:19.971Z,11.10
2022-11-01T05:44:19.985Z,10.40
2022-11-01T05:45:19.895Z,9.30
2022-11-01T05:46:19.882Z,12.60
2022-11-01T05:47:19.827Z,9.80
2022-11-01T05:48:20.826Z,10.30
2022-11-01T05:49:19.787Z,8.80
2022-11-01T05:50:20.933Z,11.10
2022-11-01T05:51:20.023Z,10.70
2022-11-01T05:52:20.116Z,11.70
2022-11-01T05:53:19.944Z,11.00
2022-11-01T05:54:20.078Z,11.10
2022-11-01T05:55:20.392Z,10.90
2022-11-01T05:56:20.080Z,10.30
2022-11-01T05:57:20.809Z,11.20
2022-11-01T05:58:20.263Z,13.40
2022-11-01T05:59:19.865Z,9.80
2022-11-01T06:00:19.789Z,11.40
2022-11-01T06:01:20.810Z,9.80
2022-11-01T06:02:20.728Z,10.60
2022-11-01T06:03:20.313Z,12.50
2022-11-01T06:04:19.871Z,10.40
2022-11-01T06:05:23.212Z,10.40
2022-11-01T06:06:20.397Z,9.70
2022-11-01T06:07:20.280Z,9.80
2022-11-01T06:08:19.996Z,11.20
2022-11-01T06:09:19.917Z,9.20
2022-11-01T06:10:20.511Z,12.30
2022-11-01T06:11:19.696Z,10.50
2022-11-01T06:12:19.609Z,9.40
2022-11-01T06:13:19.551Z,10.10
2022-11-01T06:14:19.558Z,9.50
2022-11-01T06:15:19.596Z,8.00
2022-11-01T06:16:19.543Z,9.90
2022-11-01T06:17:19.638Z,9.70
2022-11-01T06:18:19.603Z,9.70
2022-11-01T06:19:20.122Z,8.40
2022-11-01T06:20:19.680Z,9.60
2022-11-01T06:21:19.525Z,9.60
2022-11-01T06:22:19.660Z,6.60
2022-11-01T06:23:19.483Z,11.40
2022-11-01T06:24:19.429Z,9.20
2022-11-01T06:25:19.613Z,6.60
2022-11-01T06:26:19.695Z,9.80
2022-11-01T06:27:19.499Z,8.20
2022-11-01T06:28:19.396Z,8.30
2022-11-01T06:29:19.950Z,8.00
2022-11-01T06:30:19.524Z,7.90
2022-11-01T06:31:19.385Z,8.40
2022-11-01T06:32:53.294Z,9.10
2022-11-01T06:51:04.517Z,8.20
2022-11-01T06:52:04.953Z,10.70
2022-11-01T06:54:53.536Z,8.90
2022-11-01T06:58:43.503Z,9.20
2022-11-01T06:59:43.553Z,9.60
2022-11-01T07:00:44.374Z,8.40
2022-11-01T07:01:43.394Z,9.70
2022-11-01T07:02:43.289Z,10.00
2022-11-01T07:05:10.243Z,8.70
2022-11-01T07:06:43.937Z,10.00
2022-11-01T07:07:10.250Z,9.40
2022-11-01T07:08:10.971Z,9.40
2022-11-01T07:09:17.974Z,9.90
2022-11-01T07:10:10.154Z,9.90
2022-11-01T07:11:12.334Z,9.20
2022-11-01T07:12:11.363Z,11.10
2022-11-01T07:13:11.240Z,8.40
2022-11-01T07:14:11.209Z,9.40
2022-11-01T07:15:11.313Z,13.10
2022-11-01T07:16:11.387Z,10.00
2022-11-01T07:17:11.373Z,10.80
2022-11-01T07:18:11.546Z,8.60
2022-11-01T07:19:11.272Z,8.00
2022-11-01T07:20:11.271Z,12.20
2022-11-01T07:21:11.394Z,9.00
2022-11-01T07:22:14.874Z,8.30
2022-11-01T07:23:11.540Z,8.40
2022-11-01T07:24:11.115Z,8.10
2022-11-01T07:25:11.100Z,9.30
2022-11-01T07:26:11.231Z,9.20
2022-11-01T07:27:12.101Z,10.20
2022-11-01T07:28:12.280Z,9.60
2022-11-01T07:29:11.167Z,9.10
2022-11-01T07:30:11.195Z,8.00
2022-11-01T07:31:11.001Z,11.30
2022-11-01T07:32:11.091Z,8.70
2022-11-01T07:33:14.717Z,9.20
2022-11-01T07:34:18.714Z,6.90
2022-11-01T07:35:11.208Z,8.30
2022-11-01T07:36:11.135Z,8.10
2022-11-01T07:38:59.043Z,7.20
2022-11-01T07:39:01.347Z,9.10
2022-11-01T07:40:00.695Z,6.60
2022-11-01T07:41:01.183Z,9.00
2022-11-01T07:42:00.744Z,8.60
2022-11-01T07:43:01.072Z,8.80
2022-11-01T07:44:00.919Z,9.70
2022-11-01T07:45:07.973Z,8.30
2022-11-01T07:46:01.633Z,9.70
2022-11-01T07:47:00.637Z,10.90
2022-11-01T07:48:03.782Z,7.70
2022-11-01T07:49:00.591Z,6.90
2022-11-01T07:50:00.761Z,8.20
2022-11-01T07:51:00.806Z,7.70
2022-11-01T07:52:02.958Z,7.50
2022-11-01T07:53:01.613Z,8.50
2022-11-01T07:55:01.206Z,8.00
2022-11-01T07:56:00.810Z,9.20
2022-11-01T07:57:00.559Z,10.10
2022-11-01T07:58:01.355Z,8.10
2022-11-01T07:59:00.652Z,8.00
2022-11-01T08:00:00.475Z,6.00
2022-11-01T08:01:00.973Z,6.70
2022-11-01T08:02:03.842Z,6.70
2022-11-01T08:03:03.511Z,4.70
2022-11-01T08:04:00.540Z,7.10
2022-11-01T08:05:00.469Z,6.00
2022-11-01T08:06:00.494Z,6.80
2022-11-01T08:07:02.079Z,7.50
2022-11-01T08:08:00.897Z,6.50
2022-11-01T08:09:00.457Z,6.50
2022-11-01T08:10:00.531Z,7.10
2022-11-01T08:11:00.531Z,7.60
2022-11-01T08:12:00.463Z,6.70
2022-11-01T08:13:00.411Z,7.90
2022-11-01T08:14:04.296Z,6.10
2022-11-01T08:15:01.516Z,8.00
2022-11-01T08:16:01.060Z,6.60
2022-11-01T08:17:01.551Z,6.60
2022-11-01T08:18:01.579Z,10.30
2022-11-01T08:19:02.337Z,5.40
2022-11-01T08:20:00.839Z,6.70
2022-11-01T08:21:00.499Z,7.80
2022-11-01T08:22:02.102Z,6.20
2022-11-01T08:23:00.953Z,7.40
2022-11-01T08:25:21.385Z,5.60
2022-11-01T08:25:23.065Z,8.00
2022-11-01T08:26:24.375Z,5.80
2022-11-01T08:27:22.983Z,5.90
2022-11-01T08:28:23.881Z,6.10
2022-11-01T08:29:22.955Z,6.80
2022-11-01T08:30:23.970Z,5.90
2022-11-01T08:31:22.919Z,6.80
2022-11-01T08:32:22.979Z,4.80
2022-11-01T08:33:22.935Z,5.80
2022-11-01T08:34:24.182Z,6.10
2022-11-01T08:35:23.397Z,5.80
2022-11-01T08:36:23.218Z,6.10
2022-11-01T08:37:23.043Z,4.10
2022-11-01T08:38:28.192Z,5.70
2022-11-01T08:39:23.561Z,5.60
2022-11-01T08:43:20.845Z,4.90
2022-11-01T08:43:22.595Z,6.30
2022-11-01T08:44:22.577Z,4.70
2022-11-01T08:45:22.775Z,3.80
2022-11-01T08:46:22.453Z,5.90
2022-11-01T08:47:22.517Z,5.10
2022-11-01T08:48:22.419Z,3.60
2022-11-01T08:49:22.446Z,3.00
2022-11-01T08:50:22.463Z,3.40
2022-11-01T08:51:22.574Z,7.90
2022-11-01T08:52:22.423Z,5.60
2022-11-01T08:53:22.493Z,5.50
2022-11-01T08:54:23.028Z,6.70
2022-11-01T08:55:22.545Z,4.00
2022-11-01T08:56:22.732Z,4.80
2022-11-01T08:57:22.454Z,5.70
2022-11-01T08:58:22.307Z,3.80
2022-11-01T08:59:22.490Z,3.90
2022-11-01T09:00:22.335Z,4.60
2022-11-01T09:01:22.656Z,3.60
2022-11-01T09:02:22.379Z,5.10
2022-11-01T09:03:22.307Z,4.40
2022-11-01T09:04:22.235Z,4.50
2022-11-01T09:05:22.273Z,2.90
2022-11-01T09:06:22.287Z,6.50
2022-11-01T09:07:22.260Z,4.50
2022-11-01T09:08:22.204Z,5.60
2022-11-01T09:09:22.139Z,4.70
2022-11-01T09:10:23.011Z,4.70
2022-11-01T09:11:22.242Z,3.70
2022-11-01T09:12:24.819Z,4.20
2022-11-01T09:13:23.487Z,4.00
2022-11-01T09:14:22.454Z,7.30
2022-11-01T09:15:22.100Z,5.20
2022-11-01T09:16:22.117Z,3.90
2022-11-01T09:17:22.525Z,3.10
2022-11-01T09:18:22.208Z,3.70
2022-11-01T09:19:22.061Z,3.50
2022-11-01T09:20:22.310Z,3.70
2022-11-01T09:21:24.064Z,3.60
2022-11-01T09:22:22.126Z,4.40
2022-11-01T09:23:22.034Z,3.50
2022-11-01T09:24:22.177Z,2.50
2022-11-01T09:25:23.051Z,3.20
2022-11-01T09:26:22.090Z,4.40
2022-11-01T09:27:22.103Z,3.40
2022-11-01T09:28:22.135Z,3.60
2022-11-01T09:29:22.258Z,5.10
2022-11-01T09:30:22.079Z,4.30
2022-11-01T09:31:22.202Z,5.10
2022-11-01T09:32:22.307Z,2.70
2022-11-01T09:33:21.916Z,4.40
2022-11-01T09:34:21.924Z,4.30
2022-11-01T09:35:21.982Z,2.80
2022-11-01T09:36:22.119Z,4.30
2022-11-01T09:37:25.567Z,4.20
2022-11-01T09:38:21.982Z,4.00
2022-11-01T09:39:21.910Z,4.30
2022-11-01T09:40:22.018Z,5.00
2022-11-01T09:41:22.004Z,4.10
2022-11-01T09:42:21.937Z,5.00
2022-11-01T09:44:46.830Z,4.40
2022-11-01T09:44:48.415Z,2.70
2022-11-01T09:45:48.520Z,4.60
2022-11-01T09:46:48.387Z,4.70
2022-11-01T09:47:48.387Z,3.30
2022-11-01T09:48:48.457Z,5.20
2022-11-01T09:49:48.556Z,3.50
2022-11-01T09:50:48.359Z,3.80
2022-11-01T09:51:48.448Z,2.50
2022-11-01T09:52:48.677Z,3.00
2022-11-01T09:53:48.452Z,3.90
2022-11-01T09:54:48.390Z,4.10
2022-11-01T09:55:48.603Z,4.10
2022-11-01T09:56:48.270Z,4.10
2022-11-01T09:57:48.673Z,2.60
2022-11-01T09:58:50.624Z,4.40
2022-11-01T09:59:48.218Z,4.10
2022-11-01T10:00:53.001Z,3.60
2022-11-01T10:01:51.166Z,1.90
2022-11-01T10:02:48.285Z,3.40
2022-11-01T10:03:48.231Z,3.30
2022-11-01T10:04:48.300Z,3.00
2022-11-01T10:05:49.988Z,2.70
2022-11-01T10:06:48.316Z,3.10
2022-11-01T10:07:49.471Z,3.60
2022-11-01T10:08:48.262Z,3.40
2022-11-01T10:09:48.227Z,1.90
2022-11-01T10:10:50.585Z,3.00
2022-11-01T10:11:48.313Z,4.30
2022-11-01T10:12:48.820Z,2.80
2022-11-01T10:13:48.083Z,3.20
2022-11-01T10:14:48.341Z,2.20
2022-11-01T10:15:51.341Z,2.90
2022-11-01T10:16:49.495Z,1.50
2022-11-01T10:17:51.827Z,2.40
2022-11-01T10:18:49.090Z,4.20
2022-11-01T10:19:48.122Z,2.90
2022-11-01T10:20:48.081Z,2.00
2022-11-01T10:21:48.886Z,1.80
2022-11-01T10:22:48.142Z,2.40
2022-11-01T10:23:48.011Z,2.50
2022-11-01T10:25:56.775Z,3.90
2022-11-01T10:27:04.475Z,1.70
2022-11-01T10:27:58.817Z,3.20
2022-11-01T10:28:57.939Z,3.10
2022-11-01T10:29:58.702Z,3.60
2022-11-01T10:30:58.701Z,2.60
2022-11-01T10:31:57.758Z,3.90
2022-11-01T10:32:57.766Z,2.60
2022-11-01T10:33:57.898Z,1.60
2022-11-01T10:34:58.793Z,2.00
2022-11-01T10:35:57.805Z,2.60
2022-11-01T10:36:57.780Z,1.50
2022-11-01T10:38:11.208Z,3.00
2022-11-01T10:39:44.451Z,1.60
2022-11-01T10:40:04.313Z,3.80
2022-11-01T10:40:59.692Z,3.00
2022-11-01T10:41:57.777Z,2.10
2022-11-01T10:42:57.815Z,1.90
2022-11-01T10:43:58.008Z,2.00
2022-11-01T10:44:57.676Z,1.40
2022-11-01T10:45:57.802Z,3.20
2022-11-01T10:46:57.873Z,5.10
2022-11-01T10:47:58.247Z,1.60
2022-11-01T10:48:57.613Z,2.90
2022-11-01T10:50:06.188Z,3.30
2022-11-01T10:50:59.576Z,1.20
2022-11-01T10:51:57.565Z,1.20
2022-11-01T10:52:57.550Z,1.60
2022-11-01T10:53:57.628Z,2.60
2022-11-01T10:54:57.541Z,1.90
2022-11-01T10:55:57.641Z,2.90
2022-11-01T10:56:57.941Z,3.60
2022-11-01T10:59:24.714Z,2.60
2022-11-01T10:59:26.820Z,2.70
2022-11-01T11:00:26.918Z,1.50
2022-11-01T11:01:26.943Z,1.80
2022-11-01T11:02:35.398Z,2.50
2022-11-01T11:03:26.828Z,1.10
2022-11-01T11:04:28.768Z,4.00
2022-11-01T11:05:28.517Z,2.60
2022-11-01T11:06:27.463Z,1.70
2022-11-01T11:07:27.107Z,1.40
2022-11-01T11:08:26.823Z,2.10
2022-11-01T11:09:26.492Z,2.80
2022-11-01T11:10:26.487Z,2.70
2022-11-01T11:11:28.092Z,1.70
2022-11-01T11:12:26.627Z,2.60
2022-11-01T11:13:26.886Z,1.30
2022-11-01T11:14:30.488Z,2.10
2022-11-01T11:15:27.961Z,1.20
2022-11-01T11:16:26.422Z,1.10
2022-11-01T11:17:26.696Z,1.40
2022-11-01T11:18:26.420Z,1.70
2022-11-01T11:19:27.200Z,3.80
2022-11-01T11:20:27.183Z,1.20
2022-11-01T11:21:28.157Z,1.10
2022-11-01T11:22:27.332Z,1.90
2022-11-01T11:23:30.160Z,3.40
2022-11-01T11:24:26.326Z,1.40
2022-11-01T11:25:26.354Z,3.10
2022-11-01T11:26:26.363Z,2.20
2022-11-01T11:27:26.335Z,3.40
2022-11-01T11:28:26.293Z,3.50
2022-11-01T11:29:26.289Z,1.30
2022-11-01T11:30:26.336Z,1.30
2022-11-01T11:31:26.533Z,1.90
2022-11-01T11:32:26.257Z,2.10
2022-11-01T11:33:26.261Z,1.40
2022-11-01T11:35:50.473Z,1.20
2022-11-01T11:35:52.537Z,1.10
2022-11-01T11:36:52.288Z,1.50
2022-11-01T11:37:52.319Z,0.80
2022-11-01T11:38:52.311Z,1.30
2022-11-01T11:39:52.112Z,2.60
2022-11-01T11:40:52.071Z,2.30
2022-11-01T11:41:52.024Z,1.90
2022-11-01T11:42:52.222Z,1.20
2022-11-01T11:43:53.171Z,2.40
2022-11-01T11:44:55.508Z,1.20
2022-11-01T11:45:53.977Z,1.70
2022-11-01T11:46:51.987Z,1.80
2022-11-01T11:47:51.960Z,3.40
2022-11-01T11:49:08.218Z,1.90
2022-11-01T11:49:52.035Z,1.70
2022-11-01T11:52:16.012Z,1.10
2022-11-01T11:52:17.878Z,1.00
2022-11-01T12:00:53.305Z,0.90
2022-11-01T12:02:10.852Z,1.10
2022-11-01T12:06:10.191Z,2.20
2022-11-01T12:10:38.275Z,5.00
2022-11-01T12:11:45.876Z,0.80
2022-11-01T12:12:49.292Z,2.50
2022-11-01T12:13:44.870Z,2.10
2022-11-01T12:14:51.873Z,2.10
2022-11-01T12:15:44.078Z,2.30
2022-11-01T12:16:46.215Z,0.80
2022-11-01T12:17:47.919Z,1.60
2022-11-01T12:19:00.858Z,1.90
2022-11-01T12:19:50.842Z,3.30
2022-11-01T12:20:42.987Z,2.40
2022-11-01T12:22:28.789Z,1.90
2022-11-01T12:23:48.340Z,1.00
2022-11-01T12:24:49.060Z,0.80
2022-11-01T12:25:48.937Z,5.20
2022-11-01T12:26:50.537Z,1.40
2022-11-01T12:27:48.101Z,2.20
2022-11-01T12:28:49.163Z,1.40
2022-11-01T12:29:48.235Z,2.10
2022-11-01T12:31:36.921Z,1.10
2022-11-01T12:32:19.064Z,0.80
2022-11-01T12:33:07.389Z,1.00
2022-11-01T12:33:51.017Z,1.00
2022-11-01T12:35:05.587Z,0.30
2022-11-01T12:35:52.369Z,1.10
2022-11-01T12:37:12.996Z,2.90
2022-11-01T12:38:02.464Z,2.30
2022-11-01T12:38:49.662Z,3.00
2022-11-01T12:39:49.534Z,1.00
2022-11-01T12:40:55.498Z,0.70
2022-11-01T12:42:38.902Z,1.40
2022-11-01T12:42:54.267Z,1.10
2022-11-01T12:43:57.424Z,0.30
2022-11-01T12:45:08.759Z,0.70
2022-11-01T12:45:52.976Z,1.10
2022-11-01T12:48:37.185Z,0.90
2022-11-01T12:48:51.342Z,1.20
2022-11-01T12:49:48.965Z,2.70
2022-11-01T12:50:49.299Z,1.10
2022-11-01T12:51:56.550Z,1.30
2022-11-01T12:52:58.473Z,2.10
2022-11-01T12:53:48.333Z,1.20
2022-11-01T12:55:34.758Z,1.70
2022-11-01T12:56:27.104Z,1.30
2022-11-01T12:56:45.453Z,2.30
2022-11-01T12:58:15.720Z,1.30
2022-11-01T12:58:49.744Z,1.70
2022-11-01T13:00:11.235Z,1.20
2022-11-01T13:00:55.227Z,2.40
2022-11-01T13:02:04.435Z,0.90
2022-11-01T13:02:57.299Z,0.80
2022-11-01T13:03:59.968Z,1.30
2022-11-01T13:05:04.614Z,1.50
2022-11-01T13:06:04.904Z,0.50
2022-11-01T13:06:55.939Z,0.60
2022-11-01T13:08:08.628Z,0.60
2022-11-01T13:09:14.582Z,1.80
2022-11-01T13:10:33.036Z,1.60
2022-11-01T13:10:47.348Z,1.60
2022-11-01T13:11:53.933Z,1.70
2022-11-01T13:12:48.492Z,1.70
2022-11-01T13:13:48.918Z,2.10
2022-11-01T13:14:44.615Z,2.00
2022-11-01T13:15:46.191Z,0.50
2022-11-01T13:16:45.268Z,2.00
2022-11-01T13:17:54.967Z,0.80
2022-11-01T13:18:47.070Z,1.00
2022-11-01T13:19:46.373Z,2.40
2022-11-01T13:21:16.967Z,2.50
2022-11-01T13:21:43.403Z,2.60
2022-11-01T13:22:58.846Z,2.60
2022-11-01T13:23:49.404Z,1.50
2022-11-01T13:24:52.537Z,2.10
2022-11-01T13:26:10.221Z,1.10
2022-11-01T13:26:54.243Z,0.90
2022-11-01T13:27:48.196Z,1.20
2022-11-01T13:28:54.562Z,1.80
2022-11-01T13:29:46.462Z,1.30
2022-11-01T13:30:44.119Z,2.50
2022-11-01T13:31:43.578Z,1.40
2022-11-01T13:32:48.469Z,2.20
2022-11-01T13:33:43.720Z,1.30
2022-11-01T13:34:47.297Z,0.50
2022-11-01T13:36:26.020Z,0.90
2022-11-01T13:40:18.172Z,1.60
2022-11-01T13:41:20.466Z,1.80
2022-11-01T13:42:19.999Z,1.90
2022-11-01T13:43:27.636Z,0.80
2022-11-01T13:44:32.348Z,1.20
2022-11-01T13:50:10.854Z,1.40
2022-11-01T13:51:13.692Z,1.80
2022-11-01T13:52:35.720Z,0.90
2022-11-01T13:55:15.727Z,1.70
2022-11-01T13:55:29.481Z,1.30
2022-11-01T13:56:26.454Z,1.10
2022-11-01T13:57:28.956Z,1.20
2022-11-01T13:58:22.588Z,0.80
2022-11-01T13:59:23.728Z,1.10
2022-11-01T14:00:22.417Z,2.10
2022-11-01T14:02:02.686Z,0.80
2022-11-01T14:02:50.588Z,1.60
2022-11-01T14:03:27.175Z,0.90
2022-11-01T14:04:26.457Z,2.60
2022-11-01T14:05:22.380Z,1.10
2022-11-01T14:06:25.899Z,0.90
2022-11-01T14:07:23.496Z,1.30
2022-11-01T14:08:23.231Z,1.20
2022-11-01T14:09:24.453Z,2.00
2022-11-01T14:10:22.228Z,0.80
2022-11-01T14:11:25.846Z,1.30
2022-11-01T14:12:26.362Z,0.40
2022-11-01T14:13:27.421Z,1.80
2022-11-01T14:14:37.467Z,2.10
2022-11-01T14:15:32.374Z,0.70
2022-11-01T14:16:30.704Z,2.10
2022-11-01T14:17:31.867Z,0.60
2022-11-01T14:18:23.789Z,1.40
2022-11-01T14:19:43.225Z,1.60
2022-11-01T14:20:24.204Z,1.40
2022-11-01T14:21:29.029Z,1.30
2022-11-01T14:22:28.435Z,3.00
2022-11-01T14:23:27.832Z,1.00
2022-11-01T14:24:37.907Z,2.70
2022-11-01T14:26:26.101Z,2.20
2022-11-01T14:26:28.220Z,1.20
2022-11-01T14:27:33.678Z,1.60
2022-11-01T14:28:28.803Z,1.80
2022-11-01T14:30:04.043Z,1.10
2022-11-01T14:30:29.708Z,1.50
2022-11-01T14:31:28.317Z,0.70
2022-11-01T14:32:37.629Z,1.60
2022-11-01T14:34:04.536Z,1.90
2022-11-01T14:34:27.990Z,1.60
2022-11-01T14:35:36.039Z,1.00
2022-11-01T14:36:35.451Z,3.00
2022-11-01T14:37:30.453Z,2.60
2022-11-01T14:38:29.934Z,1.90
2022-11-01T14:39:47.381Z,1.90
2022-11-01T14:40:29.105Z,1.90
2022-11-01T14:41:31.512Z,0.40
2022-11-01T14:44:15.126Z,0.70
2022-11-01T14:45:16.297Z,2.50
2022-11-01T14:46:14.114Z,2.00
2022-11-01T14:49:00.899Z,2.30
2022-11-01T14:49:46.821Z,0.60
2022-11-01T14:51:11.775Z,0.50
2022-11-01T14:51:15.305Z,0.90
2022-11-01T14:52:14.165Z,1.90
2022-11-01T14:53:29.831Z,2.30
2022-11-01T14:54:27.584Z,0.70
2022-11-01T14:55:17.036Z,2.70
2022-11-01T15:00:07.044Z,0.40
2022-11-01T15:01:31.600Z,0.60
2022-11-01T15:02:57.273Z,1.60
2022-11-01T15:03:35.504Z,1.30
